sensor_id;sensor_type;location;lat;lon;timestamp;temperature;humidity
19000;DHT22;9633;50.980;13.850;2023-11-18T00:00:52;5.10;99.90
19000;DHT22;9633;50.980;13.850;2023-11-18T00:02:24;5.20;99.90
19000;DHT22;9633;50.980;13.850;2023-11-18T00:03:57;5.10;99.90
19000;DHT22;9633;50.980;13.850;2023-11-18T00:05:31;5.10;99.90
19000;DHT22;9633;50.980;13.850;2023-11-18T00:07:03;5.10;99.90
19000;DHT22;9633;50.980;13.850;2023-11-18T00:08:36;5.10;99.90
19000;DHT22;9633;50.980;13.850;2023-11-18T00:10:10;5.10;99.90
19000;DHT22;9633;50.980;13.850;2023-11-18T00:11:44;5.10;99.90
19000;DHT22;9633;50.980;13.850;2023-11-18T00:13:17;5.00;99.90
19000;DHT22;9633;50.980;13.850;2023-11-18T00:14:50;5.10;99.90
19000;DHT22;9633;50.980;13.850;2023-11-18T00:16:22;5.00;99.90
19000;DHT22;9633;50.980;13.850;2023-11-18T00:17:56;5.10;99.90
19000;DHT22;9633;50.980;13.850;2023-11-18T00:19:28;5.00;99.90
19000;DHT22;9633;50.980;13.850;2023-11-18T00:21:01;5.00;99.90
19000;DHT22;9633;50.980;13.850;2023-11-18T00:22:33;5.00;99.90
19000;DHT22;9633;50.980;13.850;2023-11-18T00:24:07;5.00;99.90
19000;DHT22;9633;50.980;13.850;2023-11-18T00:25:39;5.00;99.90
19000;DHT22;9633;50.980;13.850;2023-11-18T00:27:13;5.00;99.90
19000;DHT22;9633;50.980;13.850;2023-11-18T00:28:48;5.00;99.90
19000;DHT22;9633;50.980;13.850;2023-11-18T00:30:21;5.00;99.90
19000;DHT22;9633;50.980;13.850;2023-11-18T00:31:53;5.00;99.90
19000;DHT22;9633;50.980;13.850;2023-11-18T00:33:27;5.00;99.90
19000;DHT22;9633;50.980;13.850;2023-11-18T00:34:59;5.00;99.90
19000;DHT22;9633;50.980;13.850;2023-11-18T00:36:33;4.90;99.90
19000;DHT22;9633;50.980;13.850;2023-11-18T00:38:05;4.90;99.90
19000;DHT22;9633;50.980;13.850;2023-11-18T00:39:38;4.90;99.90
19000;DHT22;9633;50.980;13.850;2023-11-18T00:41:11;4.90;99.90
19000;DHT22;9633;50.980;13.850;2023-11-18T00:42:44;4.90;99.90
19000;DHT22;9633;50.980;13.850;2023-11-18T00:44:18;4.90;99.90
19000;DHT22;9633;50.980;13.850;2023-11-18T00:45:51;4.90;99.90
19000;DHT22;9633;50.980;13.850;2023-11-18T00:47:25;4.90;99.90
19000;DHT22;9633;50.980;13.850;2023-11-18T00:48:57;4.90;99.90
19000;DHT22;9633;50.980;13.850;2023-11-18T00:50:30;4.80;99.90
19000;DHT22;9633;50.980;13.850;2023-11-18T00:52:05;4.90;99.90
19000;DHT22;9633;50.980;13.850;2023-11-18T00:53:38;4.80;99.90
19000;DHT22;9633;50.980;13.850;2023-11-18T00:55:11;4.80;99.90
19000;DHT22;9633;50.980;13.850;2023-11-18T00:56:44;4.80;99.90
19000;DHT22;9633;50.980;13.850;2023-11-18T00:58:16;4.90;99.90
19000;DHT22;9633;50.980;13.850;2023-11-18T00:59:51;4.80;99.90
19000;DHT22;9633;50.980;13.850;2023-11-18T01:01:23;4.80;99.90
19000;DHT22;9633;50.980;13.850;2023-11-18T01:02:56;4.80;99.90
19000;DHT22;9633;50.980;13.850;2023-11-18T01:04:28;4.80;99.90
19000;DHT22;9633;50.980;13.850;2023-11-18T01:06:05;4.80;99.90
19000;DHT22;9633;50.980;13.850;2023-11-18T01:07:38;4.80;99.90
19000;DHT22;9633;50.980;13.850;2023-11-18T01:09:12;4.80;99.90
19000;DHT22;9633;50.980;13.850;2023-11-18T01:10:46;4.80;99.90
19000;DHT22;9633;50.980;13.850;2023-11-18T01:12:19;4.80;99.90
19000;DHT22;9633;50.980;13.850;2023-11-18T01:13:52;4.80;99.90
19000;DHT22;9633;50.980;13.850;2023-11-18T01:15:28;4.80;99.90
19000;DHT22;9633;50.980;13.850;2023-11-18T01:17:04;4.80;99.90
19000;DHT22;9633;50.980;13.850;2023-11-18T01:18:37;4.80;99.90
19000;DHT22;9633;50.980;13.850;2023-11-18T01:20:11;4.80;99.90
19000;DHT22;9633;50.980;13.850;2023-11-18T01:21:46;4.80;99.90
19000;DHT22;9633;50.980;13.850;2023-11-18T01:23:18;4.80;99.90
19000;DHT22;9633;50.980;13.850;2023-11-18T01:24:51;4.80;99.90
19000;DHT22;9633;50.980;13.850;2023-11-18T01:26:23;4.80;99.90
19000;DHT22;9633;50.980;13.850;2023-11-18T01:27:57;4.80;99.90
19000;DHT22;9633;50.980;13.850;2023-11-18T01:29:29;4.80;99.90
19000;DHT22;9633;50.980;13.850;2023-11-18T01:31:04;4.80;99.90
19000;DHT22;9633;50.980;13.850;2023-11-18T01:32:37;4.80;99.90
19000;DHT22;9633;50.980;13.850;2023-11-18T01:34:12;4.80;99.90
19000;DHT22;9633;50.980;13.850;2023-11-18T01:35:44;4.80;99.90
19000;DHT22;9633;50.980;13.850;2023-11-18T01:37:17;4.80;99.90
19000;DHT22;9633;50.980;13.850;2023-11-18T01:38:49;4.80;99.90
19000;DHT22;9633;50.980;13.850;2023-11-18T01:40:23;4.80;99.90
19000;DHT22;9633;50.980;13.850;2023-11-18T01:41:56;4.80;99.90
19000;DHT22;9633;50.980;13.850;2023-11-18T01:43:34;4.70;99.90
19000;DHT22;9633;50.980;13.850;2023-11-18T01:45:08;4.70;99.90
19000;DHT22;9633;50.980;13.850;2023-11-18T01:46:44;4.70;99.90
19000;DHT22;9633;50.980;13.850;2023-11-18T01:48:18;4.70;99.90
19000;DHT22;9633;50.980;13.850;2023-11-18T01:49:50;4.70;99.90
19000;DHT22;9633;50.980;13.850;2023-11-18T01:51:24;4.70;99.90
19000;DHT22;9633;50.980;13.850;2023-11-18T01:52:57;4.70;99.90
19000;DHT22;9633;50.980;13.850;2023-11-18T01:54:32;4.70;99.90
19000;DHT22;9633;50.980;13.850;2023-11-18T01:56:05;4.70;99.90
19000;DHT22;9633;50.980;13.850;2023-11-18T01:57:40;4.70;99.90
19000;DHT22;9633;50.980;13.850;2023-11-18T01:59:16;4.70;99.90
19000;DHT22;9633;50.980;13.850;2023-11-18T02:00:52;4.70;99.90
19000;DHT22;9633;50.980;13.850;2023-11-18T02:02:26;4.60;99.90
19000;DHT22;9633;50.980;13.850;2023-11-18T02:03:59;4.60;99.90
19000;DHT22;9633;50.980;13.850;2023-11-18T02:05:32;4.60;99.90
19000;DHT22;9633;50.980;13.850;2023-11-18T02:07:06;4.60;99.90
19000;DHT22;9633;50.980;13.850;2023-11-18T02:08:41;4.60;99.90
19000;DHT22;9633;50.980;13.850;2023-11-18T02:10:15;4.60;99.90
19000;DHT22;9633;50.980;13.850;2023-11-18T02:11:55;4.60;99.90
19000;DHT22;9633;50.980;13.850;2023-11-18T02:13:32;4.60;99.90
19000;DHT22;9633;50.980;13.850;2023-11-18T02:15:07;4.60;99.90
19000;DHT22;9633;50.980;13.850;2023-11-18T02:16:43;4.60;99.90
19000;DHT22;9633;50.980;13.850;2023-11-18T02:18:19;4.60;99.90
19000;DHT22;9633;50.980;13.850;2023-11-18T02:19:56;4.60;99.90
19000;DHT22;9633;50.980;13.850;2023-11-18T02:21:30;4.50;99.90
19000;DHT22;9633;50.980;13.850;2023-11-18T02:23:05;4.50;99.90
19000;DHT22;9633;50.980;13.850;2023-11-18T02:24:40;4.50;99.90
19000;DHT22;9633;50.980;13.850;2023-11-18T02:26:22;4.50;99.90
19000;DHT22;9633;50.980;13.850;2023-11-18T02:27:55;4.50;99.90
19000;DHT22;9633;50.980;13.850;2023-11-18T02:29:32;4.50;99.90
19000;DHT22;9633;50.980;13.850;2023-11-18T02:31:11;4.60;99.90
19000;DHT22;9633;50.980;13.850;2023-11-18T02:32:50;4.50;99.90
19000;DHT22;9633;50.980;13.850;2023-11-18T02:34:30;4.40;99.90
19000;DHT22;9633;50.980;13.850;2023-11-18T02:36:10;4.40;99.90
19000;DHT22;9633;50.980;13.850;2023-11-18T02:37:47;4.30;99.90
19000;DHT22;9633;50.980;13.850;2023-11-18T02:39:24;4.30;99.90
19000;DHT22;9633;50.980;13.850;2023-11-18T02:41:02;4.30;99.90
19000;DHT22;9633;50.980;13.850;2023-11-18T02:42:41;4.30;99.90
19000;DHT22;9633;50.980;13.850;2023-11-18T02:44:16;4.30;99.90
19000;DHT22;9633;50.980;13.850;2023-11-18T02:45:50;4.30;99.90
19000;DHT22;9633;50.980;13.850;2023-11-18T02:47:26;4.30;99.90
19000;DHT22;9633;50.980;13.850;2023-11-18T02:48:59;4.30;99.90
19000;DHT22;9633;50.980;13.850;2023-11-18T02:50:32;4.30;99.90
19000;DHT22;9633;50.980;13.850;2023-11-18T02:52:05;4.30;99.90
19000;DHT22;9633;50.980;13.850;2023-11-18T02:53:38;4.40;99.90
19000;DHT22;9633;50.980;13.850;2023-11-18T02:55:12;4.40;99.90
19000;DHT22;9633;50.980;13.850;2023-11-18T02:56:45;4.40;99.90
19000;DHT22;9633;50.980;13.850;2023-11-18T02:58:20;4.40;99.90
19000;DHT22;9633;50.980;13.850;2023-11-18T02:59:54;4.40;99.90
19000;DHT22;9633;50.980;13.850;2023-11-18T03:01:26;4.30;99.90
19000;DHT22;9633;50.980;13.850;2023-11-18T03:02:59;4.20;99.90
19000;DHT22;9633;50.980;13.850;2023-11-18T03:04:32;4.20;99.90
19000;DHT22;9633;50.980;13.850;2023-11-18T03:06:06;4.20;99.90
19000;DHT22;9633;50.980;13.850;2023-11-18T03:07:38;4.20;99.90
19000;DHT22;9633;50.980;13.850;2023-11-18T03:09:12;4.20;99.90
19000;DHT22;9633;50.980;13.850;2023-11-18T03:10:45;4.10;99.90
19000;DHT22;9633;50.980;13.850;2023-11-18T03:12:18;4.10;99.90
19000;DHT22;9633;50.980;13.850;2023-11-18T03:13:53;4.10;99.90
19000;DHT22;9633;50.980;13.850;2023-11-18T03:15:28;4.00;99.90
19000;DHT22;9633;50.980;13.850;2023-11-18T03:17:01;4.00;99.90
19000;DHT22;9633;50.980;13.850;2023-11-18T03:18:38;4.00;99.90
19000;DHT22;9633;50.980;13.850;2023-11-18T03:20:11;4.00;99.90
19000;DHT22;9633;50.980;13.850;2023-11-18T03:21:50;3.90;99.90
19000;DHT22;9633;50.980;13.850;2023-11-18T03:23:24;3.90;99.90
19000;DHT22;9633;50.980;13.850;2023-11-18T03:24:57;3.80;99.90
19000;DHT22;9633;50.980;13.850;2023-11-18T03:26:29;3.80;99.90
19000;DHT22;9633;50.980;13.850;2023-11-18T03:28:03;3.80;99.90
19000;DHT22;9633;50.980;13.850;2023-11-18T03:29:40;3.80;99.90
19000;DHT22;9633;50.980;13.850;2023-11-18T03:31:15;3.80;99.90
19000;DHT22;9633;50.980;13.850;2023-11-18T03:32:48;3.80;99.90
19000;DHT22;9633;50.980;13.850;2023-11-18T03:34:21;3.80;99.90
19000;DHT22;9633;50.980;13.850;2023-11-18T03:35:54;3.90;99.90
19000;DHT22;9633;50.980;13.850;2023-11-18T03:37:27;3.90;99.90
19000;DHT22;9633;50.980;13.850;2023-11-18T03:39:01;3.90;99.90
19000;DHT22;9633;50.980;13.850;2023-11-18T03:40:35;3.90;99.90
19000;DHT22;9633;50.980;13.850;2023-11-18T03:42:07;3.90;99.90
19000;DHT22;9633;50.980;13.850;2023-11-18T03:43:41;3.90;99.90
19000;DHT22;9633;50.980;13.850;2023-11-18T03:45:14;4.00;99.90
19000;DHT22;9633;50.980;13.850;2023-11-18T03:46:49;4.00;99.90
19000;DHT22;9633;50.980;13.850;2023-11-18T03:48:22;4.00;99.90
19000;DHT22;9633;50.980;13.850;2023-11-18T03:49:55;4.10;99.90
19000;DHT22;9633;50.980;13.850;2023-11-18T03:51:28;4.00;99.90
19000;DHT22;9633;50.980;13.850;2023-11-18T03:53:01;4.10;99.90
19000;DHT22;9633;50.980;13.850;2023-11-18T03:54:35;4.10;99.90
19000;DHT22;9633;50.980;13.850;2023-11-18T03:56:08;4.10;99.90
19000;DHT22;9633;50.980;13.850;2023-11-18T03:57:41;4.10;99.90
19000;DHT22;9633;50.980;13.850;2023-11-18T03:59:14;4.10;99.90
19000;DHT22;9633;50.980;13.850;2023-11-18T04:00:48;4.20;99.90
19000;DHT22;9633;50.980;13.850;2023-11-18T04:02:21;4.20;99.90
19000;DHT22;9633;50.980;13.850;2023-11-18T04:03:54;4.20;99.90
19000;DHT22;9633;50.980;13.850;2023-11-18T04:05:27;4.20;99.90
19000;DHT22;9633;50.980;13.850;2023-11-18T04:07:00;4.20;99.90
19000;DHT22;9633;50.980;13.850;2023-11-18T04:08:34;4.20;99.90
19000;DHT22;9633;50.980;13.850;2023-11-18T04:10:07;4.20;99.90
19000;DHT22;9633;50.980;13.850;2023-11-18T04:11:42;4.20;99.90
19000;DHT22;9633;50.980;13.850;2023-11-18T04:13:17;4.20;99.90
19000;DHT22;9633;50.980;13.850;2023-11-18T04:14:50;4.20;99.90
19000;DHT22;9633;50.980;13.850;2023-11-18T04:16:24;4.20;99.90
19000;DHT22;9633;50.980;13.850;2023-11-18T04:17:57;4.20;99.90
19000;DHT22;9633;50.980;13.850;2023-11-18T04:19:29;4.20;99.90
19000;DHT22;9633;50.980;13.850;2023-11-18T04:21:03;4.30;99.90
19000;DHT22;9633;50.980;13.850;2023-11-18T04:22:38;4.30;99.90
19000;DHT22;9633;50.980;13.850;2023-11-18T04:24:11;4.20;99.90
19000;DHT22;9633;50.980;13.850;2023-11-18T04:25:43;4.20;99.90
19000;DHT22;9633;50.980;13.850;2023-11-18T04:27:17;4.20;99.90
19000;DHT22;9633;50.980;13.850;2023-11-18T04:28:50;4.20;99.90
19000;DHT22;9633;50.980;13.850;2023-11-18T04:30:23;4.30;99.90
19000;DHT22;9633;50.980;13.850;2023-11-18T04:31:57;4.20;99.90
19000;DHT22;9633;50.980;13.850;2023-11-18T04:33:32;4.30;99.90
19000;DHT22;9633;50.980;13.850;2023-11-18T04:35:05;4.30;99.90
19000;DHT22;9633;50.980;13.850;2023-11-18T04:36:41;4.30;99.90
19000;DHT22;9633;50.980;13.850;2023-11-18T04:38:15;4.30;99.90
19000;DHT22;9633;50.980;13.850;2023-11-18T04:39:48;4.20;99.90
19000;DHT22;9633;50.980;13.850;2023-11-18T04:41:20;4.20;99.90
19000;DHT22;9633;50.980;13.850;2023-11-18T04:42:54;4.20;99.90
19000;DHT22;9633;50.980;13.850;2023-11-18T04:44:27;4.20;99.90
19000;DHT22;9633;50.980;13.850;2023-11-18T04:46:00;4.20;99.90
19000;DHT22;9633;50.980;13.850;2023-11-18T04:47:34;4.20;99.90
19000;DHT22;9633;50.980;13.850;2023-11-18T04:49:07;4.20;99.90
19000;DHT22;9633;50.980;13.850;2023-11-18T04:50:41;4.10;99.90
19000;DHT22;9633;50.980;13.850;2023-11-18T04:52:13;4.10;99.90
19000;DHT22;9633;50.980;13.850;2023-11-18T04:53:46;4.20;99.90
19000;DHT22;9633;50.980;13.850;2023-11-18T04:55:19;4.20;99.90
19000;DHT22;9633;50.980;13.850;2023-11-18T04:56:52;4.10;99.90
19000;DHT22;9633;50.980;13.850;2023-11-18T04:58:24;4.10;99.90
19000;DHT22;9633;50.980;13.850;2023-11-18T04:59:57;4.20;99.90
19000;DHT22;9633;50.980;13.850;2023-11-18T05:01:29;4.20;99.90
19000;DHT22;9633;50.980;13.850;2023-11-18T05:03:04;4.20;99.90
19000;DHT22;9633;50.980;13.850;2023-11-18T05:04:41;4.20;99.90
19000;DHT22;9633;50.980;13.850;2023-11-18T05:06:13;4.20;99.90
19000;DHT22;9633;50.980;13.850;2023-11-18T05:07:46;4.20;99.90
19000;DHT22;9633;50.980;13.850;2023-11-18T05:09:19;4.20;99.90
19000;DHT22;9633;50.980;13.850;2023-11-18T05:10:52;4.20;99.90
19000;DHT22;9633;50.980;13.850;2023-11-18T05:12:26;4.30;99.90
19000;DHT22;9633;50.980;13.850;2023-11-18T05:14:01;4.20;99.90
19000;DHT22;9633;50.980;13.850;2023-11-18T05:15:35;4.30;99.90
19000;DHT22;9633;50.980;13.850;2023-11-18T05:17:09;4.30;99.90
19000;DHT22;9633;50.980;13.850;2023-11-18T05:18:44;4.40;99.90
19000;DHT22;9633;50.980;13.850;2023-11-18T05:20:16;4.40;99.90
19000;DHT22;9633;50.980;13.850;2023-11-18T05:21:50;4.40;99.90
19000;DHT22;9633;50.980;13.850;2023-11-18T05:23:23;4.40;99.90
19000;DHT22;9633;50.980;13.850;2023-11-18T05:24:56;4.40;99.90
19000;DHT22;9633;50.980;13.850;2023-11-18T05:26:29;4.40;99.90
19000;DHT22;9633;50.980;13.850;2023-11-18T05:28:02;4.40;99.90
19000;DHT22;9633;50.980;13.850;2023-11-18T05:29:36;4.50;99.90
19000;DHT22;9633;50.980;13.850;2023-11-18T05:31:08;4.40;99.90
19000;DHT22;9633;50.980;13.850;2023-11-18T05:32:41;4.40;99.90
19000;DHT22;9633;50.980;13.850;2023-11-18T05:34:15;4.40;99.90
19000;DHT22;9633;50.980;13.850;2023-11-18T05:35:48;4.40;99.90
19000;DHT22;9633;50.980;13.850;2023-11-18T05:37:21;4.40;99.90
19000;DHT22;9633;50.980;13.850;2023-11-18T05:38:54;4.40;99.90
19000;DHT22;9633;50.980;13.850;2023-11-18T05:40:27;4.50;99.90
19000;DHT22;9633;50.980;13.850;2023-11-18T05:42:01;4.40;99.90
19000;DHT22;9633;50.980;13.850;2023-11-18T05:43:33;4.40;99.90
19000;DHT22;9633;50.980;13.850;2023-11-18T05:45:12;4.40;99.90
19000;DHT22;9633;50.980;13.850;2023-11-18T05:46:50;4.50;99.90
19000;DHT22;9633;50.980;13.850;2023-11-18T05:48:23;4.50;99.90
19000;DHT22;9633;50.980;13.850;2023-11-18T05:49:57;4.50;99.90
19000;DHT22;9633;50.980;13.850;2023-11-18T05:51:30;4.50;99.90
19000;DHT22;9633;50.980;13.850;2023-11-18T05:53:03;4.50;99.90
19000;DHT22;9633;50.980;13.850;2023-11-18T05:54:36;4.50;99.90
19000;DHT22;9633;50.980;13.850;2023-11-18T05:56:08;4.50;99.90
19000;DHT22;9633;50.980;13.850;2023-11-18T05:57:42;4.50;99.90
19000;DHT22;9633;50.980;13.850;2023-11-18T05:59:16;4.50;99.90
19000;DHT22;9633;50.980;13.850;2023-11-18T06:00:50;4.50;99.90
19000;DHT22;9633;50.980;13.850;2023-11-18T06:02:22;4.50;99.90
19000;DHT22;9633;50.980;13.850;2023-11-18T06:03:57;4.50;99.90
19000;DHT22;9633;50.980;13.850;2023-11-18T06:05:31;4.50;99.90
19000;DHT22;9633;50.980;13.850;2023-11-18T06:07:06;4.50;99.90
19000;DHT22;9633;50.980;13.850;2023-11-18T06:08:40;4.50;99.90
19000;DHT22;9633;50.980;13.850;2023-11-18T06:10:13;4.40;99.90
19000;DHT22;9633;50.980;13.850;2023-11-18T06:11:47;4.40;99.90
19000;DHT22;9633;50.980;13.850;2023-11-18T06:13:19;4.40;99.90
19000;DHT22;9633;50.980;13.850;2023-11-18T06:14:52;4.40;99.90
19000;DHT22;9633;50.980;13.850;2023-11-18T06:16:25;4.40;99.90
19000;DHT22;9633;50.980;13.850;2023-11-18T06:17:59;4.40;99.90
19000;DHT22;9633;50.980;13.850;2023-11-18T06:19:31;4.40;99.90
19000;DHT22;9633;50.980;13.850;2023-11-18T06:21:06;4.30;99.90
19000;DHT22;9633;50.980;13.850;2023-11-18T06:22:38;4.30;99.90
19000;DHT22;9633;50.980;13.850;2023-11-18T06:24:11;4.40;99.90
19000;DHT22;9633;50.980;13.850;2023-11-18T06:25:45;4.30;99.90
19000;DHT22;9633;50.980;13.850;2023-11-18T06:27:20;4.30;99.90
19000;DHT22;9633;50.980;13.850;2023-11-18T06:28:55;4.30;99.90
19000;DHT22;9633;50.980;13.850;2023-11-18T06:30:29;4.30;99.90
19000;DHT22;9633;50.980;13.850;2023-11-18T06:32:02;4.30;99.90
19000;DHT22;9633;50.980;13.850;2023-11-18T06:33:38;4.30;99.90
19000;DHT22;9633;50.980;13.850;2023-11-18T06:35:14;4.30;99.90
19000;DHT22;9633;50.980;13.850;2023-11-18T06:36:49;4.30;99.90
19000;DHT22;9633;50.980;13.850;2023-11-18T06:38:22;4.30;99.90
19000;DHT22;9633;50.980;13.850;2023-11-18T06:39:56;4.30;99.90
19000;DHT22;9633;50.980;13.850;2023-11-18T06:41:29;4.30;99.90
19000;DHT22;9633;50.980;13.850;2023-11-18T06:43:06;4.40;99.90
19000;DHT22;9633;50.980;13.850;2023-11-18T06:44:42;4.40;99.90
19000;DHT22;9633;50.980;13.850;2023-11-18T06:46:15;4.40;99.90
19000;DHT22;9633;50.980;13.850;2023-11-18T06:47:48;4.40;99.90
19000;DHT22;9633;50.980;13.850;2023-11-18T06:49:21;4.40;99.90
19000;DHT22;9633;50.980;13.850;2023-11-18T06:50:54;4.40;99.90
19000;DHT22;9633;50.980;13.850;2023-11-18T06:52:28;4.40;99.90
19000;DHT22;9633;50.980;13.850;2023-11-18T06:54:01;4.40;99.90
19000;DHT22;9633;50.980;13.850;2023-11-18T06:55:41;4.40;99.90
19000;DHT22;9633;50.980;13.850;2023-11-18T06:57:13;4.40;99.90
19000;DHT22;9633;50.980;13.850;2023-11-18T06:58:46;4.40;99.90
19000;DHT22;9633;50.980;13.850;2023-11-18T07:00:19;4.40;99.90
19000;DHT22;9633;50.980;13.850;2023-11-18T07:01:54;4.40;99.90
19000;DHT22;9633;50.980;13.850;2023-11-18T07:03:27;4.40;99.90
19000;DHT22;9633;50.980;13.850;2023-11-18T07:04:59;4.40;99.90
19000;DHT22;9633;50.980;13.850;2023-11-18T07:06:33;4.40;99.90
19000;DHT22;9633;50.980;13.850;2023-11-18T07:08:11;4.40;99.90
19000;DHT22;9633;50.980;13.850;2023-11-18T07:09:44;4.40;99.90
19000;DHT22;9633;50.980;13.850;2023-11-18T07:11:23;4.30;99.90
19000;DHT22;9633;50.980;13.850;2023-11-18T07:12:55;4.30;99.90
19000;DHT22;9633;50.980;13.850;2023-11-18T07:14:28;4.30;99.90
19000;DHT22;9633;50.980;13.850;2023-11-18T07:16:00;4.30;99.90
19000;DHT22;9633;50.980;13.850;2023-11-18T07:17:35;4.30;99.90
19000;DHT22;9633;50.980;13.850;2023-11-18T07:19:08;4.30;99.90
19000;DHT22;9633;50.980;13.850;2023-11-18T07:20:42;4.40;99.90
19000;DHT22;9633;50.980;13.850;2023-11-18T07:22:14;4.40;99.90
19000;DHT22;9633;50.980;13.850;2023-11-18T07:23:49;4.40;99.90
19000;DHT22;9633;50.980;13.850;2023-11-18T07:25:21;4.50;99.90
19000;DHT22;9633;50.980;13.850;2023-11-18T07:26:54;4.50;99.90
19000;DHT22;9633;50.980;13.850;2023-11-18T07:28:27;4.50;99.90
19000;DHT22;9633;50.980;13.850;2023-11-18T07:30:00;4.50;99.90
19000;DHT22;9633;50.980;13.850;2023-11-18T07:31:33;4.60;99.90
19000;DHT22;9633;50.980;13.850;2023-11-18T07:33:08;4.60;99.90
19000;DHT22;9633;50.980;13.850;2023-11-18T07:34:40;4.50;99.90
19000;DHT22;9633;50.980;13.850;2023-11-18T07:36:15;4.60;99.90
19000;DHT22;9633;50.980;13.850;2023-11-18T07:37:48;4.50;99.90
19000;DHT22;9633;50.980;13.850;2023-11-18T07:39:22;4.60;99.90
19000;DHT22;9633;50.980;13.850;2023-11-18T07:41:02;4.60;99.90
19000;DHT22;9633;50.980;13.850;2023-11-18T07:42:35;4.70;99.90
19000;DHT22;9633;50.980;13.850;2023-11-18T07:44:09;4.70;99.90
19000;DHT22;9633;50.980;13.850;2023-11-18T07:45:45;4.80;99.90
19000;DHT22;9633;50.980;13.850;2023-11-18T07:47:21;4.80;99.90
19000;DHT22;9633;50.980;13.850;2023-11-18T07:48:54;4.80;99.90
19000;DHT22;9633;50.980;13.850;2023-11-18T07:50:28;4.80;99.90
19000;DHT22;9633;50.980;13.850;2023-11-18T07:52:01;4.90;99.90
19000;DHT22;9633;50.980;13.850;2023-11-18T07:53:35;5.00;99.90
19000;DHT22;9633;50.980;13.850;2023-11-18T07:55:09;5.10;99.90
19000;DHT22;9633;50.980;13.850;2023-11-18T07:56:44;5.10;99.90
19000;DHT22;9633;50.980;13.850;2023-11-18T07:58:20;5.00;99.90
19000;DHT22;9633;50.980;13.850;2023-11-18T07:59:55;5.10;99.90
19000;DHT22;9633;50.980;13.850;2023-11-18T08:01:27;5.10;99.90
19000;DHT22;9633;50.980;13.850;2023-11-18T08:03:00;5.20;99.90
19000;DHT22;9633;50.980;13.850;2023-11-18T08:04:33;5.20;99.90
19000;DHT22;9633;50.980;13.850;2023-11-18T08:06:07;5.20;99.90
19000;DHT22;9633;50.980;13.850;2023-11-18T08:07:40;5.10;99.90
19000;DHT22;9633;50.980;13.850;2023-11-18T08:09:13;5.10;99.90
19000;DHT22;9633;50.980;13.850;2023-11-18T08:10:47;5.10;99.90
19000;DHT22;9633;50.980;13.850;2023-11-18T08:12:22;5.00;99.90
19000;DHT22;9633;50.980;13.850;2023-11-18T08:13:54;5.00;99.90
19000;DHT22;9633;50.980;13.850;2023-11-18T08:15:28;5.00;99.90
19000;DHT22;9633;50.980;13.850;2023-11-18T08:17:01;5.10;99.90
19000;DHT22;9633;50.980;13.850;2023-11-18T08:18:36;5.10;99.90
19000;DHT22;9633;50.980;13.850;2023-11-18T08:20:10;5.20;99.90
19000;DHT22;9633;50.980;13.850;2023-11-18T08:21:46;5.20;99.90
19000;DHT22;9633;50.980;13.850;2023-11-18T08:23:19;5.30;99.90
19000;DHT22;9633;50.980;13.850;2023-11-18T08:24:51;5.40;99.90
19000;DHT22;9633;50.980;13.850;2023-11-18T08:26:26;5.30;99.90
19000;DHT22;9633;50.980;13.850;2023-11-18T08:27:58;5.40;99.90
19000;DHT22;9633;50.980;13.850;2023-11-18T08:29:32;5.50;99.90
19000;DHT22;9633;50.980;13.850;2023-11-18T08:31:06;5.50;99.90
19000;DHT22;9633;50.980;13.850;2023-11-18T08:32:42;5.40;99.90
19000;DHT22;9633;50.980;13.850;2023-11-18T08:34:16;5.30;99.90
19000;DHT22;9633;50.980;13.850;2023-11-18T08:35:50;5.40;99.90
19000;DHT22;9633;50.980;13.850;2023-11-18T08:37:22;5.40;99.90
19000;DHT22;9633;50.980;13.850;2023-11-18T08:38:56;5.40;99.90
19000;DHT22;9633;50.980;13.850;2023-11-18T08:40:29;5.40;99.90
19000;DHT22;9633;50.980;13.850;2023-11-18T08:42:03;5.40;99.90
19000;DHT22;9633;50.980;13.850;2023-11-18T08:43:39;5.50;99.90
19000;DHT22;9633;50.980;13.850;2023-11-18T08:45:13;5.50;99.90
19000;DHT22;9633;50.980;13.850;2023-11-18T08:46:48;5.40;99.90
19000;DHT22;9633;50.980;13.850;2023-11-18T08:48:24;5.50;99.90
19000;DHT22;9633;50.980;13.850;2023-11-18T08:49:57;5.60;99.90
19000;DHT22;9633;50.980;13.850;2023-11-18T08:51:29;5.60;99.90
19000;DHT22;9633;50.980;13.850;2023-11-18T08:53:05;5.50;99.90
19000;DHT22;9633;50.980;13.850;2023-11-18T08:54:41;5.60;99.90
19000;DHT22;9633;50.980;13.850;2023-11-18T08:56:35;5.70;99.90
19000;DHT22;9633;50.980;13.850;2023-11-18T08:58:15;5.60;99.90
19000;DHT22;9633;50.980;13.850;2023-11-18T08:59:51;5.60;99.90
19000;DHT22;9633;50.980;13.850;2023-11-18T09:01:24;5.70;99.90
19000;DHT22;9633;50.980;13.850;2023-11-18T09:03:01;5.70;99.90
19000;DHT22;9633;50.980;13.850;2023-11-18T09:04:37;5.80;99.90
19000;DHT22;9633;50.980;13.850;2023-11-18T09:06:10;5.80;99.90
19000;DHT22;9633;50.980;13.850;2023-11-18T09:07:50;5.70;99.90
19000;DHT22;9633;50.980;13.850;2023-11-18T09:09:25;5.60;99.90
19000;DHT22;9633;50.980;13.850;2023-11-18T09:10:59;5.60;99.90
19000;DHT22;9633;50.980;13.850;2023-11-18T09:12:32;5.60;99.90
19000;DHT22;9633;50.980;13.850;2023-11-18T09:14:07;5.60;99.90
19000;DHT22;9633;50.980;13.850;2023-11-18T09:15:40;5.80;99.90
19000;DHT22;9633;50.980;13.850;2023-11-18T09:17:14;5.90;99.90
19000;DHT22;9633;50.980;13.850;2023-11-18T09:18:48;5.70;99.90
19000;DHT22;9633;50.980;13.850;2023-11-18T09:20:21;5.70;99.90
19000;DHT22;9633;50.980;13.850;2023-11-18T09:21:54;5.80;99.90
19000;DHT22;9633;50.980;13.850;2023-11-18T09:23:29;5.80;99.90
19000;DHT22;9633;50.980;13.850;2023-11-18T09:25:01;5.90;99.90
19000;DHT22;9633;50.980;13.850;2023-11-18T09:26:41;5.90;99.90
19000;DHT22;9633;50.980;13.850;2023-11-18T09:28:16;6.00;99.90
19000;DHT22;9633;50.980;13.850;2023-11-18T09:29:49;6.30;99.90
19000;DHT22;9633;50.980;13.850;2023-11-18T09:31:23;6.30;99.90
19000;DHT22;9633;50.980;13.850;2023-11-18T09:32:55;6.20;99.90
19000;DHT22;9633;50.980;13.850;2023-11-18T09:34:28;6.30;99.90
19000;DHT22;9633;50.980;13.850;2023-11-18T09:36:07;6.50;99.90
19000;DHT22;9633;50.980;13.850;2023-11-18T09:37:39;6.40;99.90
19000;DHT22;9633;50.980;13.850;2023-11-18T09:39:14;6.40;99.90
19000;DHT22;9633;50.980;13.850;2023-11-18T09:41:06;6.20;99.90
19000;DHT22;9633;50.980;13.850;2023-11-18T09:42:39;6.40;99.90
19000;DHT22;9633;50.980;13.850;2023-11-18T09:44:15;6.60;99.90
19000;DHT22;9633;50.980;13.850;2023-11-18T09:45:55;6.80;99.90
19000;DHT22;9633;50.980;13.850;2023-11-18T09:47:28;6.90;99.90
19000;DHT22;9633;50.980;13.850;2023-11-18T09:49:10;6.80;99.90
19000;DHT22;9633;50.980;13.850;2023-11-18T09:50:48;6.70;93.70
19000;DHT22;9633;50.980;13.850;2023-11-18T09:52:23;6.70;93.20
19000;DHT22;9633;50.980;13.850;2023-11-18T09:53:59;6.70;99.90
19000;DHT22;9633;50.980;13.850;2023-11-18T09:55:41;6.70;99.80
19000;DHT22;9633;50.980;13.850;2023-11-18T09:57:19;6.90;99.90
19000;DHT22;9633;50.980;13.850;2023-11-18T09:59:04;7.30;99.90
19000;DHT22;9633;50.980;13.850;2023-11-18T10:00:38;7.20;99.80
19000;DHT22;9633;50.980;13.850;2023-11-18T10:02:15;7.40;96.40
19000;DHT22;9633;50.980;13.850;2023-11-18T10:03:51;7.20;86.40